createdAt,value
2022-08-26T00:00:12.654Z,4.93
2022-08-26T00:05:15.702Z,4.57
2022-08-26T00:10:20.441Z,5.20
2022-08-26T00:15:26.099Z,4.90
2022-08-26T00:20:31.652Z,4.85
2022-08-26T00:25:37.901Z,4.40
2022-08-26T00:30:48.256Z,5.00
2022-08-26T00:35:54.824Z,5.50
2022-08-26T00:41:00.574Z,4.50
2022-08-26T00:46:08.463Z,4.97
2022-08-26T00:51:13.830Z,4.68
2022-08-26T00:56:23.921Z,4.43
2022-08-26T01:01:31.095Z,4.80
2022-08-26T01:06:34.651Z,5.05
2022-08-26T01:11:40.605Z,4.75
2022-08-26T01:16:44.374Z,4.80
2022-08-26T01:21:53.307Z,4.65
2022-08-26T01:27:00.367Z,5.03
2022-08-26T01:32:05.142Z,4.82
2022-08-26T01:37:13.767Z,5.28
2022-08-26T01:42:22.257Z,5.32
2022-08-26T01:47:37.568Z,5.28
2022-08-26T01:52:43.136Z,5.15
2022-08-26T01:57:49.838Z,5.60
2022-08-26T02:03:17.701Z,5.45
2022-08-26T02:08:25.526Z,4.85
2022-08-26T02:13:31.421Z,4.68
2022-08-26T02:18:36.092Z,4.88
2022-08-26T02:23:39.645Z,4.78
2022-08-26T02:28:47.726Z,4.63
2022-08-26T02:33:52.179Z,4.97
2022-08-26T02:38:55.589Z,4.65
2022-08-26T02:44:00.375Z,5.20
2022-08-26T02:49:03.807Z,4.60
2022-08-26T02:54:06.994Z,4.93
2022-08-26T02:59:12.641Z,4.93
2022-08-26T03:04:15.772Z,5.20
2022-08-26T03:09:22.263Z,5.88
2022-08-26T03:14:29.142Z,4.78
2022-08-26T03:19:33.025Z,4.97
2022-08-26T03:24:38.418Z,5.43
2022-08-26T03:30:01.711Z,5.30
2022-08-26T03:35:06.640Z,6.20
2022-08-26T03:40:12.529Z,6.35
2022-08-26T03:45:23.775Z,5.90
2022-08-26T03:50:28.420Z,5.80
2022-08-26T03:55:32.676Z,5.97
2022-08-26T04:00:38.104Z,5.88
2022-08-26T04:05:41.415Z,5.97
2022-08-26T04:10:45.109Z,6.25
2022-08-26T04:15:50.741Z,5.93
2022-08-26T04:20:53.905Z,6.13
2022-08-26T04:25:57.782Z,5.47
2022-08-26T04:31:02.543Z,5.28
2022-08-26T04:36:06.498Z,5.93
2022-08-26T04:41:15.339Z,5.97
2022-08-26T04:46:23.106Z,5.90
2022-08-26T04:51:28.540Z,6.22
2022-08-26T04:56:33.940Z,6.15
2022-08-26T05:01:39.709Z,6.05
2022-08-26T05:06:43.006Z,5.50
2022-08-26T05:11:48.404Z,6.15
2022-08-26T05:22:00.254Z,5.43
2022-08-26T05:27:04.083Z,5.88
2022-08-26T05:32:16.147Z,6.45
2022-08-26T05:37:19.493Z,6.07
2022-08-26T05:42:23.595Z,6.40
2022-08-26T05:47:33.564Z,6.38
2022-08-26T05:52:38.190Z,6.10
2022-08-26T05:57:42.891Z,6.60
2022-08-26T06:02:48.904Z,6.70
2022-08-26T06:08:09.928Z,6.63
2022-08-26T06:13:14.156Z,6.53
2022-08-26T06:18:20.618Z,6.80
2022-08-26T06:23:41.834Z,6.30
2022-08-26T06:28:45.888Z,6.15
2022-08-26T06:33:50.623Z,6.15
2022-08-26T06:38:54.051Z,5.78
2022-08-26T06:43:58.223Z,5.88
2022-08-26T06:49:02.748Z,6.53
2022-08-26T06:54:06.998Z,6.25
2022-08-26T06:59:12.866Z,5.68
2022-08-26T07:04:20.245Z,5.95
2022-08-26T07:09:27.797Z,5.93
2022-08-26T07:14:31.784Z,5.55
2022-08-26T07:19:36.862Z,6.18
2022-08-26T07:24:41.185Z,6.50
2022-08-26T07:29:45.993Z,6.40
2022-08-26T07:34:50.599Z,6.80
2022-08-26T07:39:53.736Z,6.97
2022-08-26T07:44:57.309Z,7.38
2022-08-26T07:50:02.560Z,9.13
2022-08-26T07:55:07.154Z,9.52
2022-08-26T08:00:12.329Z,10.02
2022-08-26T08:05:18.867Z,10.30
2022-08-26T08:10:25.225Z,12.07
2022-08-26T08:15:32.142Z,13.15
2022-08-26T08:20:37.358Z,12.80
2022-08-26T08:25:41.587Z,14.52
2022-08-26T08:30:51.557Z,14.88
2022-08-26T08:36:02.603Z,16.17
2022-08-26T08:41:06.276Z,14.55
2022-08-26T08:46:11.536Z,16.60
2022-08-26T08:51:20.744Z,16.63
2022-08-26T08:56:27.308Z,14.93
2022-08-26T09:01:43.498Z,14.20
2022-08-26T09:06:48.778Z,13.95
2022-08-26T09:11:55.105Z,15.43
2022-08-26T09:17:01.657Z,15.07
2022-08-26T09:22:09.534Z,14.70
2022-08-26T09:27:13.357Z,14.13
2022-08-26T09:32:20.791Z,14.45
2022-08-26T09:37:41.148Z,13.93
2022-08-26T09:42:44.869Z,13.25
2022-08-26T09:47:54.245Z,15.20
2022-08-26T09:53:20.890Z,14.80
2022-08-26T09:58:37.932Z,14.15
2022-08-26T10:03:41.616Z,14.70
2022-08-26T10:08:47.672Z,14.00
2022-08-26T10:13:56.797Z,14.38
2022-08-26T10:19:03.522Z,14.15
2022-08-26T10:24:11.389Z,14.48
2022-08-26T10:29:16.903Z,14.07
2022-08-26T10:34:21.251Z,12.55
2022-08-26T10:39:29.673Z,11.32
2022-08-26T10:44:37.474Z,10.63
2022-08-26T10:49:44.364Z,9.38
2022-08-26T10:54:51.434Z,9.13
2022-08-26T10:59:58.178Z,8.57
2022-08-26T11:05:03.481Z,8.05
2022-08-26T11:10:30.679Z,7.80
2022-08-26T11:16:10.741Z,8.00
2022-08-26T11:21:49.543Z,7.63
2022-08-26T11:26:58.486Z,6.97
2022-08-26T11:32:02.636Z,5.97
2022-08-26T11:37:12.988Z,5.78
2022-08-26T11:42:21.373Z,5.60
2022-08-26T11:47:28.879Z,5.28
2022-08-26T11:52:33.251Z,5.03
2022-08-26T11:57:43.311Z,5.30
2022-08-26T12:02:46.718Z,5.28
2022-08-26T12:07:50.854Z,5.07
2022-08-26T12:12:58.319Z,5.17
2022-08-26T12:18:28.893Z,5.97
2022-08-26T12:23:41.883Z,5.70
2022-08-26T12:28:50.491Z,5.38
2022-08-26T12:33:54.692Z,5.20
2022-08-26T12:38:58.598Z,4.70
2022-08-26T12:44:03.611Z,4.78
2022-08-26T12:49:06.802Z,4.68
2022-08-26T12:54:17.983Z,4.20
2022-08-26T12:59:25.159Z,4.28
2022-08-26T13:04:39.780Z,4.40
2022-08-26T13:09:43.146Z,4.00
2022-08-26T13:14:48.708Z,4.13
2022-08-26T13:19:51.921Z,3.80
2022-08-26T13:24:57.965Z,3.72
2022-08-26T13:30:03.967Z,3.60
2022-08-26T13:35:08.643Z,3.70
2022-08-26T13:40:14.400Z,3.75
2022-08-26T13:45:22.369Z,4.00
2022-08-26T13:55:28.748Z,3.70
2022-08-26T14:00:33.481Z,3.70
2022-08-26T14:05:36.952Z,3.58
2022-08-26T14:10:40.255Z,3.63
2022-08-26T14:15:45.089Z,3.70
2022-08-26T14:20:51.828Z,3.65
2022-08-26T14:25:55.630Z,3.60
2022-08-26T14:31:00.504Z,3.90
2022-08-26T14:36:18.076Z,3.42
2022-08-26T14:41:21.217Z,4.00
2022-08-26T14:46:28.239Z,3.47
2022-08-26T14:51:31.722Z,3.47
2022-08-26T14:56:35.578Z,3.90
2022-08-26T15:01:40.828Z,3.70
2022-08-26T15:06:44.829Z,4.15
2022-08-26T15:11:48.600Z,4.45
2022-08-26T15:16:55.880Z,4.57
2022-08-26T15:22:00.353Z,4.10
2022-08-26T15:27:03.938Z,5.05
2022-08-26T15:32:08.811Z,5.18
2022-08-26T15:37:12.138Z,4.53
2022-08-26T15:42:15.447Z,4.43
2022-08-26T15:47:22.333Z,4.32
2022-08-26T15:52:26.246Z,4.68
2022-08-26T15:57:29.593Z,4.28
2022-08-26T16:02:35.319Z,4.75
2022-08-26T16:07:40.535Z,4.93
2022-08-26T16:12:43.661Z,5.47
2022-08-26T16:17:48.404Z,5.63
2022-08-26T16:22:51.510Z,5.60
2022-08-26T16:27:56.051Z,5.30
2022-08-26T16:33:00.941Z,5.25
2022-08-26T16:38:04.364Z,6.50
2022-08-26T16:43:07.432Z,6.60
2022-08-26T16:48:12.213Z,6.93
2022-08-26T16:53:15.481Z,6.85
2022-08-26T16:58:21.950Z,6.68
2022-08-26T17:03:27.630Z,7.03
2022-08-26T17:08:31.023Z,6.60
2022-08-26T17:13:36.104Z,7.03
2022-08-26T17:18:41.163Z,7.68
2022-08-26T17:23:44.680Z,13.23
2022-08-26T17:28:47.926Z,11.98
2022-08-26T17:33:53.720Z,12.68
2022-08-26T17:38:57.978Z,11.52
2022-08-26T17:44:02.353Z,10.82
2022-08-26T17:49:08.558Z,10.75
2022-08-26T17:54:11.941Z,9.68
2022-08-26T17:59:15.238Z,9.23
2022-08-26T18:04:20.414Z,7.50
2022-08-26T18:09:23.915Z,7.47
2022-08-26T18:14:27.497Z,7.43
2022-08-26T18:19:32.064Z,7.55
2022-08-26T18:24:35.446Z,8.07
2022-08-26T18:29:45.631Z,8.70
2022-08-26T18:34:54.466Z,8.77
2022-08-26T18:45:05.719Z,9.93
2022-08-26T18:50:47.433Z,10.75
2022-08-26T18:55:53.850Z,10.15
2022-08-26T19:01:00.752Z,9.40
2022-08-26T19:06:06.939Z,8.60
2022-08-26T19:11:13.869Z,9.02
2022-08-26T19:16:30.920Z,9.55
2022-08-26T19:21:39.592Z,8.80
2022-08-26T19:27:03.235Z,8.82
2022-08-26T19:32:08.782Z,8.45
2022-08-26T19:37:30.037Z,8.52
2022-08-26T19:42:33.827Z,7.93
2022-08-26T19:47:39.286Z,7.57
2022-08-26T19:52:45.082Z,8.10
2022-08-26T19:57:56.718Z,7.75
2022-08-26T20:03:31.642Z,9.18
